createdAt,value
2023-02-11T00:02:21.779Z,87.81
2023-02-11T00:07:31.696Z,87.68
2023-02-11T00:12:39.705Z,87.36
2023-02-11T00:17:46.596Z,87.65
2023-02-11T00:22:54.844Z,87.61
2023-02-11T00:28:01.272Z,87.30
2023-02-11T00:33:08.028Z,87.41
2023-02-11T00:38:15.901Z,87.28
2023-02-11T00:43:22.269Z,87.29
2023-02-11T00:48:30.379Z,86.97
2023-02-11T00:53:38.960Z,86.82
2023-02-11T00:58:45.443Z,86.90
2023-02-11T01:03:51.987Z,86.81
2023-02-11T01:09:08.810Z,86.86
2023-02-11T01:14:15.293Z,86.65
2023-02-11T01:19:21.508Z,86.78
2023-02-11T01:24:29.193Z,86.75
2023-02-11T01:29:35.456Z,86.64
2023-02-11T01:34:41.753Z,86.46
2023-02-11T01:39:49.480Z,86.62
2023-02-11T01:44:59.415Z,86.40
2023-02-11T01:50:06.520Z,86.38
2023-02-11T01:55:38.245Z,86.47
2023-02-11T02:00:44.573Z,86.39
2023-02-11T02:05:57.724Z,86.50
2023-02-11T02:11:06.753Z,86.40
2023-02-11T02:16:15.748Z,86.34
2023-02-11T02:22:21.367Z,86.45
2023-02-11T02:27:42.956Z,86.37
2023-02-11T02:33:23.131Z,86.22
2023-02-11T02:38:36.706Z,86.22
2023-02-11T02:43:48.208Z,86.12
2023-02-11T02:48:57.383Z,86.17
2023-02-11T02:54:31.385Z,85.99
2023-02-11T02:59:51.768Z,85.61
2023-02-11T03:05:08.164Z,85.82
2023-02-11T03:10:21.338Z,85.85
2023-02-11T03:15:32.259Z,85.57
2023-02-11T03:20:43.893Z,85.35
2023-02-11T03:25:57.715Z,84.99
2023-02-11T03:31:16.359Z,85.40
2023-02-11T03:36:30.224Z,85.14
2023-02-11T03:41:37.301Z,85.21
2023-02-11T03:46:50.383Z,84.77
2023-02-11T03:51:59.836Z,84.98
2023-02-11T03:57:06.398Z,84.76
2023-02-11T04:02:12.918Z,84.55
2023-02-11T04:07:20.824Z,84.65
2023-02-11T04:12:26.994Z,84.65
2023-02-11T04:17:33.461Z,84.48
2023-02-11T04:22:41.106Z,84.45
2023-02-11T04:27:47.271Z,84.49
2023-02-11T04:32:54.534Z,84.38
2023-02-11T04:38:02.035Z,84.28
2023-02-11T04:43:08.549Z,84.14
2023-02-11T04:48:14.882Z,84.17
2023-02-11T04:53:22.827Z,84.02
2023-02-11T04:58:29.167Z,84.07
2023-02-11T05:03:35.400Z,83.90
2023-02-11T05:08:43.222Z,83.90
2023-02-11T05:13:50.167Z,83.85
2023-02-11T05:18:56.921Z,83.68
2023-02-11T05:24:04.636Z,83.71
2023-02-11T05:29:11.110Z,83.82
2023-02-11T05:34:17.666Z,83.77
2023-02-11T05:39:25.555Z,83.82
2023-02-11T05:44:32.073Z,84.04
2023-02-11T05:49:38.772Z,83.85
2023-02-11T05:54:46.815Z,83.84
2023-02-11T05:59:53.358Z,83.81
2023-02-11T06:05:00.008Z,83.52
2023-02-11T06:10:09.616Z,83.91
2023-02-11T06:15:15.847Z,83.83
2023-02-11T06:20:22.814Z,83.88
2023-02-11T06:25:30.781Z,83.80
2023-02-11T06:30:38.206Z,83.86
2023-02-11T06:35:44.569Z,83.77
2023-02-11T06:40:52.663Z,84.13
2023-02-11T06:45:58.872Z,84.05
2023-02-11T06:51:06.826Z,84.61
2023-02-11T06:56:17.631Z,84.86
2023-02-11T07:01:25.342Z,85.24
2023-02-11T07:06:31.621Z,85.40
2023-02-11T07:11:39.410Z,85.59
2023-02-11T07:16:45.868Z,85.50
2023-02-11T07:21:52.770Z,85.60
2023-02-11T07:27:00.669Z,85.39
2023-02-11T07:32:07.667Z,85.51
2023-02-11T07:37:14.149Z,85.32
2023-02-11T07:42:22.126Z,85.26
2023-02-11T07:47:28.572Z,85.36
2023-02-11T07:52:34.793Z,85.44
2023-02-11T07:57:42.710Z,85.57
2023-02-11T08:02:49.160Z,85.75
2023-02-11T08:07:56.171Z,85.77
2023-02-11T08:13:03.884Z,85.98
2023-02-11T08:18:10.191Z,86.11
2023-02-11T08:23:16.344Z,86.10
2023-02-11T08:28:24.063Z,86.77
2023-02-11T08:33:30.317Z,87.05
2023-02-11T08:38:36.619Z,87.41
2023-02-11T08:43:45.541Z,87.64
2023-02-11T08:48:52.018Z,87.78
2023-02-11T08:53:58.986Z,87.71
2023-02-11T08:59:07.408Z,87.74
2023-02-11T09:04:13.655Z,87.88
2023-02-11T09:09:20.266Z,88.35
2023-02-11T09:14:28.858Z,88.41
2023-02-11T09:19:36.340Z,88.21
2023-02-11T09:24:42.435Z,88.58
2023-02-11T09:29:54.259Z,88.55
2023-02-11T09:35:01.195Z,88.55
2023-02-11T09:40:09.206Z,88.93
2023-02-11T09:45:21.993Z,88.90
2023-02-11T09:50:35.687Z,89.05
2023-02-11T09:55:46.856Z,89.31
2023-02-11T10:01:06.768Z,89.74
2023-02-11T10:06:47.785Z,89.63
2023-02-11T10:12:12.730Z,89.91
2023-02-11T10:17:34.070Z,90.31
2023-02-11T10:22:44.852Z,90.53
2023-02-11T10:27:53.238Z,90.32
2023-02-11T10:33:08.833Z,90.29
2023-02-11T10:38:15.296Z,90.28
2023-02-11T10:43:27.953Z,90.29
2023-02-11T10:48:46.928Z,90.19
2023-02-11T10:54:21.573Z,90.29
2023-02-11T10:59:32.523Z,90.32
2023-02-11T11:04:45.225Z,90.29
2023-02-11T11:09:56.031Z,90.31
2023-02-11T11:15:16.738Z,90.50
2023-02-11T11:20:29.642Z,90.55
2023-02-11T11:25:37.765Z,90.46
2023-02-11T11:30:45.909Z,90.67
2023-02-11T11:36:08.166Z,90.98
2023-02-11T11:41:26.893Z,91.01
2023-02-11T11:46:37.934Z,91.18
2023-02-11T11:51:53.678Z,91.77
2023-02-11T11:57:06.825Z,91.75
2023-02-11T12:03:11.544Z,92.15
2023-02-11T12:08:30.383Z,92.31
2023-02-11T12:14:02.587Z,92.38
2023-02-11T12:19:44.349Z,92.82
2023-02-11T12:25:18.535Z,92.70
2023-02-11T12:31:05.544Z,92.68
2023-02-11T12:36:23.218Z,92.81
2023-02-11T12:42:08.101Z,92.77
2023-02-11T12:47:24.544Z,92.85
2023-02-11T12:52:49.685Z,93.10
2023-02-11T12:58:00.871Z,92.84
2023-02-11T13:03:15.657Z,92.86
2023-02-11T13:08:28.039Z,92.84
2023-02-11T13:13:47.925Z,92.62
2023-02-11T13:19:04.165Z,92.80
2023-02-11T13:31:30.465Z,92.94
2023-02-11T13:36:37.929Z,92.95
2023-02-11T13:41:52.476Z,93.19
2023-02-11T13:47:06.429Z,93.16
2023-02-11T13:52:26.560Z,93.26
2023-02-11T13:57:40.525Z,93.34
2023-02-11T14:03:51.604Z,93.77
2023-02-11T14:09:32.485Z,93.48
2023-02-11T14:15:20.706Z,93.70
2023-02-11T14:20:48.452Z,93.87
2023-02-11T14:26:11.727Z,93.84
2023-02-11T14:31:24.645Z,93.95
2023-02-11T14:37:02.920Z,93.96
2023-02-11T14:42:22.689Z,93.99
2023-02-11T14:47:39.298Z,94.26
2023-02-11T14:52:49.269Z,94.25
2023-02-11T16:12:27.524Z,95.33
2023-02-11T16:17:36.959Z,95.02
2023-02-11T16:22:50.282Z,94.91
2023-02-11T16:28:00.654Z,95.01
2023-02-11T16:33:09.190Z,95.02
2023-02-11T16:38:21.697Z,95.08
2023-02-11T16:43:35.316Z,94.99
2023-02-11T16:48:49.088Z,95.10
2023-02-11T16:53:59.153Z,94.95
2023-02-11T17:00:25.859Z,94.99
2023-02-11T17:05:54.235Z,95.07
2023-02-11T17:11:06.023Z,95.03
2023-02-11T17:16:25.823Z,95.19
2023-02-11T17:21:36.831Z,95.12
2023-02-11T17:26:47.981Z,94.90
2023-02-11T17:33:36.106Z,95.17
2023-02-11T17:53:40.320Z,95.13
2023-02-11T17:58:53.838Z,95.20
2023-02-11T18:04:05.304Z,95.16
2023-02-11T18:09:16.992Z,95.22
2023-02-11T18:14:26.128Z,95.47
2023-02-11T18:19:38.547Z,95.20
2023-02-11T18:24:54.346Z,95.17
2023-02-11T18:30:08.349Z,95.15
2023-02-11T18:43:32.371Z,95.11
2023-02-11T18:48:45.798Z,95.04
2023-02-11T18:53:56.910Z,94.95
2023-02-11T18:59:11.010Z,94.88
2023-02-11T19:04:21.630Z,94.90
2023-02-11T19:09:33.111Z,94.90
2023-02-11T19:14:46.799Z,94.71
2023-02-11T19:19:56.578Z,94.60
2023-02-11T19:33:19.471Z,94.61
2023-02-11T19:38:29.724Z,94.67
2023-02-11T19:43:39.361Z,94.52
2023-02-11T19:48:58.144Z,94.54
2023-02-11T19:54:07.629Z,94.54
2023-02-11T19:59:19.023Z,94.48
2023-02-11T20:04:34.710Z,94.39
2023-02-11T20:09:44.553Z,94.40
2023-02-11T20:14:56.194Z,94.35
2023-02-11T20:20:12.899Z,94.41
2023-02-11T20:33:36.150Z,94.30
2023-02-11T20:41:42.156Z,94.10
2023-02-11T20:48:00.156Z,94.15
2023-02-11T20:53:18.583Z,94.08
2023-02-11T20:58:43.851Z,93.70
2023-02-11T21:04:07.991Z,93.94
2023-02-11T21:09:31.512Z,93.82
2023-02-11T21:14:52.832Z,93.53
2023-02-11T21:20:10.471Z,93.09
2023-02-11T21:25:23.269Z,90.59
2023-02-11T21:30:39.193Z,87.52
2023-02-11T21:35:49.451Z,86.41
2023-02-11T21:41:05.579Z,85.30
2023-02-11T21:46:22.155Z,84.63
2023-02-11T21:51:30.728Z,82.53
2023-02-11T21:56:39.699Z,83.24
2023-02-11T22:01:53.810Z,83.47
2023-02-11T22:07:00.947Z,83.00
2023-02-11T22:12:10.210Z,83.53
2023-02-11T22:17:18.958Z,83.89
2023-02-11T22:22:25.897Z,84.09
2023-02-11T22:27:32.802Z,83.80
2023-02-11T22:32:42.939Z,83.23
2023-02-11T22:37:50.091Z,81.61
2023-02-11T22:42:56.859Z,81.95
2023-02-11T22:48:04.897Z,82.28
2023-02-11T22:53:11.767Z,82.02
2023-02-11T22:58:19.194Z,81.26
2023-02-11T23:03:28.547Z,81.74
2023-02-11T23:08:36.038Z,81.07
2023-02-11T23:13:44.624Z,80.10
2023-02-11T23:18:52.871Z,80.72
2023-02-11T23:24:02.111Z,79.84
2023-02-11T23:29:08.955Z,80.42
2023-02-11T23:34:20.738Z,80.44
2023-02-11T23:39:27.813Z,80.52
2023-02-11T23:44:34.852Z,80.96
2023-02-11T23:49:42.972Z,81.15
2023-02-11T23:54:50.072Z,81.21
2023-02-11T23:59:57.146Z,81.11
